KGUS

Grissom ARB Airport

Peru, Indiana, USA
TAF AMD KGUS 142150Z 1421/1601 06006KT 9999 OVC005 QNH3010INS BECMG 1422/1423 04006KT 9999 SCT005 OVC100 QNH3011INS BECMG 1423/1501 02006KT 8000 BR OVC005 QNH3009INS BECMG 1510/1511 05009KT 9000 BR OVC007 QNH3008INS BECMG 1514/1515 04009KT 9999 NSW SCT010 BKN160 QNH2997INS TX07/1421Z TN03/1515Z
Issued Valid From Valid To
Dec-14 @ 21:50 UTC
(38 minutes ago)
Dec-14 @ 21:00 UTC
(an hour ago)
Dec-16 @ 01:00 UTC
(-1 days ago)
Expired Click to View Dec-14 @ 21:00 to Dec-14 @ 22:00
TAF AMD KGUS 142150Z 1421/1601 06006KT 9999 OVC005 QNH3010INS
Wind Visibility Clouds Readings
60° at 6 knots Greater than 6 miles
  • Overcast at 500' AGL
Altimeter 30.09" Hg
Pressure 1019 hPa
Becoming Dec-14 @ 22:00 to Dec-14 @ 23:00
BECMG 1422/1423 04006KT 9999 SCT005 OVC100 QNH3011INS
Wind Visibility Clouds Readings
40° at 6 knots Greater than 6 miles
  • Scattered at 500' AGL
  • Overcast at 10,000' AGL
Altimeter 30.12" Hg
Pressure 1020 hPa
Becoming Dec-14 @ 23:00 to Dec-15 @ 10:00
BECMG 1423/1501 02006KT 8000 BR OVC005 QNH3009INS
Wind Visibility Clouds Conditions Readings
20° at 6 knots 5.0 miles
  • Overcast at 500' AGL
  • Mist
Altimeter 30.09" Hg
Pressure 1019 hPa
Becoming Dec-15 @ 10:00 to Dec-15 @ 14:00
BECMG 1510/1511 05009KT 9000 BR OVC007 QNH3008INS
Wind Visibility Clouds Conditions Readings
50° at 9 knots 5.6 miles
  • Overcast at 700' AGL
  • Mist
Altimeter 30.09" Hg
Pressure 1019 hPa
Becoming Dec-15 @ 14:00 to Dec-16 @ 01:00
BECMG 1514/1515 04009KT 9999 NSW SCT010 BKN160 QNH2997INS TX07/1421Z TN03/1515Z
Wind Visibility Clouds Conditions Readings
40° at 9 knots Greater than 6 miles
  • Scattered at 1,000' AGL
  • Broken at 16,000' AGL
Altimeter 29.97" Hg
Pressure 1015 hPa
TAF AMD KGUS 142150Z 1421/1601 06006KT 9999 OVC005 QNH3010INS BECMG 1422/1423 04006KT 9999 SCT005 OVC100 QNH3011INS BECMG 1423/1501 02006KT 8000 BR OVC005 QNH3009INS BECMG 1510/1511 05009KT 9000 BR OVC007 QNH3008INS BECMG 1514/1515 04009KT 9999 NSW SCT010 BKN160 QNH2997INS TX07/1421Z TN03/1515Z
Issued Dec-14 @ 21:50 UTC
(38 minutes ago)
Valid From Dec-14 @ 21:00 UTC
(an hour ago)
Valid To Dec-16 @ 01:00 UTC
(-1 days ago)
Dec-14 @ 21:00 - Dec-14 @ 22:00
Wind Visibility
60° at 6 knots Greater than 6 miles
Clouds
  • Overcast at 500' AGL
Becoming Dec-14 @ 22:00 - Dec-14 @ 23:00
Wind Visibility
40° at 6 knots Greater than 6 miles
Clouds
  • Scattered at 500' AGL
  • Overcast at 10,000' AGL
Becoming Dec-14 @ 23:00 - Dec-15 @ 10:00
Wind Visibility
20° at 6 knots 5.0 miles
Clouds
  • Overcast at 500' AGL
Conditions
  • Mist
Becoming Dec-15 @ 10:00 - Dec-15 @ 14:00
Wind Visibility
50° at 9 knots 5.6 miles
Clouds
  • Overcast at 700' AGL
Conditions
  • Mist
Becoming Dec-15 @ 14:00 - Dec-16 @ 01:00
Wind Visibility
40° at 9 knots Greater than 6 miles
Clouds
  • Scattered at 1,000' AGL
  • Broken at 16,000' AGL
Conditions